Zapolyarye — UBEF5 — position and weather

sailwx.info

Track history (hours):
 
Tides and Currents Weather Stations Pressure Air Temp Water Temp Dewpoint Dewpoint Depression Visibility Wind Speed Wind Dir Waves Ship Positions

Zapolyarye

Last reported at 2016-Jul-28 07:32 UTC. Time now 2016-Jul-28 08:36 UTC.
Position N 59°53' E 030°12'.

Length 181 m; draft 6.4 m.

Type: Cargo ship. MMSI: 273338310.

Date/timePositionNaut miles runAvg speedWind from/ knotsBaromVisibWave heightAir tempDewpointWater temp
2016-Jul-28 07:32N 59°53' E 030°12'0 0.0
2016-Jul-28 06:29N 59°53' E 030°12'0 0.0
2016-Jul-28 05:32N 59°53' E 030°13'0 0.0
2016-Jul-28 04:32N 59°53' E 030°12'0 0.0
2016-Jul-28 03:32N 59°53' E 030°12'0 0.0
2016-Jul-28 02:32N 59°53' E 030°12'0 0.0
2016-Jul-28 01:32N 59°53' E 030°12'0 0.0
2016-Jul-28 00:32N 59°53' E 030°12'0 0.0
2016-Jul-27 23:32N 59°53' E 030°12'0 0.0
2016-Jul-27 22:32N 59°53' E 030°12'0 0.0
2016-Jul-27 21:31N 59°53' E 030°12'0 0.0
2016-Jul-27 20:31N 59°53' E 030°12'0 0.0
2016-Jul-27 19:31N 59°53' E 030°12'0 0.0
2016-Jul-27 18:34N 59°53' E 030°12'0 0.0
2016-Jul-27 17:33N 59°53' E 030°12'0 0.0
2016-Jul-27 16:33N 59°53' E 030°12'0 0.0
2016-Jul-27 15:34N 59°53' E 030°12'1 1.4
2016-Jul-27 14:33N 59°53' E 030°10'1110.5
2016-Jul-27 13:33N 59°57' E 029°50'1211.3
2016-Jul-27 12:29N 60°01' E 029°27'5 1.3
2016-Jul-27 08:08N 60°06' E 029°22'0 0.0
2016-Jul-26 13:11N 60°06' E 029°22'18 8.7
2016-Jul-26 11:10N 60°02' E 028°47'711.6
2016-Jul-26 10:33N 60°02' E 028°33'1111.2
2016-Jul-26 09:33N 60°07' E 028°13'1111.5
2016-Jul-26 08:33N 60°10' E 027°51'1111.2
2016-Jul-26 07:33N 60°06' E 027°30'1211.4
2016-Jul-26 06:29N 59°60' E 027°09'1010.8
2016-Jul-26 05:33N 59°59' E 026°49'1111.5
2016-Jul-26 04:33N 59°57' E 026°26'1211.6
2016-Jul-26 03:33N 59°54' E 026°04'1211.7
2016-Jul-26 02:33N 59°52' E 025°41'2412.1
2016-Jul-26 00:33N 59°46' E 024°54'1411.9
2016-Jul-25 23:23N 59°43' E 024°27'911.3
2016-Jul-25 22:34N 59°40' E 024°10'1211.5
2016-Jul-25 21:33N 59°37' E 023°48'1211.7
2016-Jul-25 20:33N 59°33' E 023°26'1211.8
2016-Jul-25 19:33N 59°30' E 023°04'1211.8
2016-Jul-25 18:33N 59°26' E 022°41'1211.7
2016-Jul-25 17:33N 59°19' E 022°23'31811.6
2016-Jul-24 14:07N 55°37' E 015°19'812.0
2016-Jul-24 13:26N 55°33' E 015°06'1011.8
2016-Jul-24 12:33N 55°28' E 014°50'1212.0
2016-Jul-24 11:33N 55°21' E 014°33'1211.9
2016-Jul-24 10:33N 55°12' E 014°20'1212.2
2016-Jul-24 09:33N 55°10' E 013°59'1212.1
2016-Jul-24 08:31N 55°12' E 013°37'1111.5
2016-Jul-24 07:33N 55°13' E 013°18'1211.6
2016-Jul-24 06:33N 55°15' E 012°58'1111.4
2016-Jul-24 05:33N 55°18' E 012°39'1111.2
2016-Jul-24 04:33N 55°29' E 012°41'1110.9
2016-Jul-24 03:33N 55°40' E 012°41'1110.8
2016-Jul-24 02:33N 55°51' E 012°41'1110.6
2016-Jul-24 01:33N 56°01' E 012°38'9 8.9
2016-Jul-24 00:33N 56°08' E 012°28'1211.7
2016-Jul-23 23:33N 56°15' E 012°11'1111.0
2016-Jul-23 22:33N 56°24' E 012°00'1211.7
2016-Jul-23 21:33N 56°36' E 011°56'1211.8
2016-Jul-23 20:33N 56°47' E 011°51'1212.3
2016-Jul-23 19:33N 56°59' E 011°43'1212.1
2016-Jul-23 18:34N 57°10' E 011°36'1211.7
2016-Jul-23 17:33N 57°21' E 011°28'1110.9
2016-Jul-23 16:33N 57°30' E 011°17'1111.2
2016-Jul-23 15:33N 57°38' E 011°01'1111.2
2016-Jul-23 14:33N 57°45' E 010°46'1111.1
2016-Jul-23 13:33N 57°45' E 010°25'8511.2
2016-Jul-23 06:00N 57°00' E 008°12'8110.9 290 / 141020.810.8 1.018.0 17.0
2016-Jul-22 22:33N 55°50' E 006°57'1310.7
2016-Jul-22 21:22N 55°39' E 006°46'1110.9
2016-Jul-22 20:21N 55°30' E 006°36'1210.8
2016-Jul-22 19:13N 55°19' E 006°24'1512.2
2016-Jul-22 18:00N 55°06' E 006°12'4 7.8 330 / 231019.510.8 1.018.0 19.0
2016-Jul-22 17:31N 55°03' E 006°08'2410.8
2016-Jul-22 15:16N 54°42' E 005°46'810.9
2016-Jul-22 14:31N 54°35' E 005°39'1110.9
2016-Jul-22 13:31N 54°26' E 005°29'1111.1
2016-Jul-22 12:33N 54°17' E 005°20'3867.7
2016-Jul-22 12:00N 54°54' E 005°06'47107.8 040 / 211019.510.8 1.017.0 19.0
2016-Jul-22 11:33N 54°07' E 005°10'1211.4
2016-Jul-22 10:32N 53°56' E 005°03'1211.6
2016-Jul-22 09:29N 53°45' E 004°55'1311.7
2016-Jul-22 08:21N 53°33' E 004°46'1011.9
2016-Jul-22 07:33N 53°24' E 004°41'3812.8
2016-Jul-22 04:33N 52°50' E 004°13'1312.6
2016-Jul-22 03:31N 52°39' E 004°02'1212.2
2016-Jul-22 02:33N 52°28' E 003°54'1211.6
2016-Jul-22 01:32N 52°16' E 003°52'1110.9
2016-Jul-22 00:33N 52°06' E 003°55'1010.2
2016-Jul-21 23:34N 51°59' E 004°07'9 8.6
2016-Jul-21 22:34N 51°53' E 004°18'1 0.8
2016-Jul-21 21:32N 51°54' E 004°16'0 0.0
2016-Jul-21 20:32N 51°54' E 004°16'0 0.0
2016-Jul-21 19:32N 51°54' E 004°16'0 0.0
2016-Jul-21 18:32N 51°54' E 004°16'0 0.0
2016-Jul-21 17:32N 51°54' E 004°16'0 0.0
2016-Jul-21 16:32N 51°54' E 004°16'0 0.0
2016-Jul-21 15:32N 51°54' E 004°16'0 0.0
2016-Jul-21 14:32N 51°54' E 004°16'0 0.0
2016-Jul-21 13:32N 51°54' E 004°16'0 0.0
2016-Jul-21 12:32N 51°54' E 004°16'0 0.0
2016-Jul-21 11:20N 51°54' E 004°16'0 0.0
2016-Jul-21 10:26N 51°54' E 004°16'0 0.0
2016-Jul-21 09:32N 51°54' E 004°16'0 0.0
2016-Jul-21 08:32N 51°54' E 004°16'0 0.0
2016-Jul-21 07:32N 51°54' E 004°16'0 0.0
2016-Jul-21 06:32N 51°54' E 004°16'0 0.0
2016-Jul-21 05:32N 51°54' E 004°16'0 0.0
2016-Jul-21 04:32N 51°54' E 004°16'0 0.0
2016-Jul-21 03:29N 51°54' E 004°16'0 0.0
2016-Jul-21 02:32N 51°54' E 004°16'0 0.0
2016-Jul-21 01:32N 51°54' E 004°16'0 0.0
2016-Jul-21 00:33N 51°54' E 004°16'1 0.7
2016-Jul-20 23:33N 51°54' E 004°16'1110.7
2016-Jul-20 22:33N 51°60' E 004°01'10 9.8
2016-Jul-20 21:33N 52°04' E 003°47'1212.0
2016-Jul-20 20:33N 52°16' E 003°47'1211.8
2016-Jul-20 19:32N 52°28' E 003°51'1111.0
2016-Jul-20 18:33N 52°39' E 003°54'1010.1
2016-Jul-20 17:33N 52°49' E 003°57'9 9.1
2016-Jul-20 16:33N 52°57' E 004°01'10 8.7
2016-Jul-20 15:28N 53°04' E 004°13'3911.1
2016-Jul-20 12:00N 53°36' E 004°48'1711.0 150 / 191012.910.8 1.020.0 16.0
2016-Jul-20 10:25N 53°53' E 004°50'1010.7
2016-Jul-20 09:32N 54°02' E 004°56'1010.2
2016-Jul-20 08:33N 54°12' E 004°55'1010.3
2016-Jul-20 07:33N 54°22' E 004°51'15 9.4
2016-Jul-20 06:00N 54°36' E 004°42'9210.9 110 / 191017.510.8 1.018.0 15.0
2016-Jul-19 21:32N 56°07' E 004°25'1111.4
2016-Jul-19 20:33N 56°19' E 004°25'3011.6
2016-Jul-19 18:00N 56°48' E 004°18'7212.0 180 / 121020.810.8 0.518.0 14.0
2016-Jul-19 12:00N 58°00' E 004°12'6010.1 270 / 141020.810.8 0.517.0 14.0
2016-Jul-19 06:00N 59°00' E 004°00'12610.5 200 / 171017.5 2.2 1.016.0 13.0
2016-Jul-18 18:00N 61°06' E 004°00'   350 / 101017.510.8 0.516.0 13.0
Track history (hours):
 
Tides and Currents Weather Stations Pressure Air Temp Water Temp Dewpoint Dewpoint Depression Visibility Wind Speed Wind Dir Waves Ship Positions

Zapolyarye

Last reported at 2016-Jul-28 07:32 UTC. Time now 2016-Jul-28 08:36 UTC.
Position N 59°53' E 030°12'.

Length 181 m; draft 6.4 m.

Type: Cargo ship. MMSI: 273338310.

Date/timePositionNaut miles runAvg speedWind from/ knotsBaromVisibWave heightAir tempDewpointWater temp
2016-Jul-28 07:32N 59°53' E 030°12'0 0.0
2016-Jul-28 06:29N 59°53' E 030°12'0 0.0
2016-Jul-28 05:32N 59°53' E 030°13'0 0.0
2016-Jul-28 04:32N 59°53' E 030°12'0 0.0
2016-Jul-28 03:32N 59°53' E 030°12'0 0.0
2016-Jul-28 02:32N 59°53' E 030°12'0 0.0
2016-Jul-28 01:32N 59°53' E 030°12'0 0.0
2016-Jul-28 00:32N 59°53' E 030°12'0 0.0
2016-Jul-27 23:32N 59°53' E 030°12'0 0.0
2016-Jul-27 22:32N 59°53' E 030°12'0 0.0
2016-Jul-27 21:31N 59°53' E 030°12'0 0.0
2016-Jul-27 20:31N 59°53' E 030°12'0 0.0
2016-Jul-27 19:31N 59°53' E 030°12'0 0.0
2016-Jul-27 18:34N 59°53' E 030°12'0 0.0
2016-Jul-27 17:33N 59°53' E 030°12'0 0.0
2016-Jul-27 16:33N 59°53' E 030°12'0 0.0
2016-Jul-27 15:34N 59°53' E 030°12'1 1.4
2016-Jul-27 14:33N 59°53' E 030°10'1110.5
2016-Jul-27 13:33N 59°57' E 029°50'1211.3
2016-Jul-27 12:29N 60°01' E 029°27'5 1.3
2016-Jul-27 08:08N 60°06' E 029°22'0 0.0
2016-Jul-26 13:11N 60°06' E 029°22'18 8.7
2016-Jul-26 11:10N 60°02' E 028°47'711.6
2016-Jul-26 10:33N 60°02' E 028°33'1111.2
2016-Jul-26 09:33N 60°07' E 028°13'1111.5
2016-Jul-26 08:33N 60°10' E 027°51'1111.2
2016-Jul-26 07:33N 60°06' E 027°30'1211.4
2016-Jul-26 06:29N 59°60' E 027°09'1010.8
2016-Jul-26 05:33N 59°59' E 026°49'1111.5
2016-Jul-26 04:33N 59°57' E 026°26'1211.6
2016-Jul-26 03:33N 59°54' E 026°04'1211.7
2016-Jul-26 02:33N 59°52' E 025°41'2412.1
2016-Jul-26 00:33N 59°46' E 024°54'1411.9
2016-Jul-25 23:23N 59°43' E 024°27'911.3
2016-Jul-25 22:34N 59°40' E 024°10'1211.5
2016-Jul-25 21:33N 59°37' E 023°48'1211.7
2016-Jul-25 20:33N 59°33' E 023°26'1211.8
2016-Jul-25 19:33N 59°30' E 023°04'1211.8
2016-Jul-25 18:33N 59°26' E 022°41'1211.7
2016-Jul-25 17:33N 59°19' E 022°23'31811.6
2016-Jul-24 14:07N 55°37' E 015°19'812.0
2016-Jul-24 13:26N 55°33' E 015°06'1011.8
2016-Jul-24 12:33N 55°28' E 014°50'1212.0
2016-Jul-24 11:33N 55°21' E 014°33'1211.9
2016-Jul-24 10:33N 55°12' E 014°20'1212.2
2016-Jul-24 09:33N 55°10' E 013°59'1212.1
2016-Jul-24 08:31N 55°12' E 013°37'1111.5
2016-Jul-24 07:33N 55°13' E 013°18'1211.6
2016-Jul-24 06:33N 55°15' E 012°58'1111.4
2016-Jul-24 05:33N 55°18' E 012°39'1111.2
2016-Jul-24 04:33N 55°29' E 012°41'1110.9
2016-Jul-24 03:33N 55°40' E 012°41'1110.8
2016-Jul-24 02:33N 55°51' E 012°41'1110.6
2016-Jul-24 01:33N 56°01' E 012°38'9 8.9
2016-Jul-24 00:33N 56°08' E 012°28'1211.7
2016-Jul-23 23:33N 56°15' E 012°11'1111.0
2016-Jul-23 22:33N 56°24' E 012°00'1211.7
2016-Jul-23 21:33N 56°36' E 011°56'1211.8
2016-Jul-23 20:33N 56°47' E 011°51'1212.3
2016-Jul-23 19:33N 56°59' E 011°43'1212.1
2016-Jul-23 18:34N 57°10' E 011°36'1211.7
2016-Jul-23 17:33N 57°21' E 011°28'1110.9
2016-Jul-23 16:33N 57°30' E 011°17'1111.2
2016-Jul-23 15:33N 57°38' E 011°01'1111.2
2016-Jul-23 14:33N 57°45' E 010°46'1111.1
2016-Jul-23 13:33N 57°45' E 010°25'8511.2
2016-Jul-23 06:00N 57°00' E 008°12'8110.9 290 / 141020.810.8 1.018.0 17.0
2016-Jul-22 22:33N 55°50' E 006°57'1310.7
2016-Jul-22 21:22N 55°39' E 006°46'1110.9
2016-Jul-22 20:21N 55°30' E 006°36'1210.8
2016-Jul-22 19:13N 55°19' E 006°24'1512.2
2016-Jul-22 18:00N 55°06' E 006°12'4 7.8 330 / 231019.510.8 1.018.0 19.0
2016-Jul-22 17:31N 55°03' E 006°08'2410.8
2016-Jul-22 15:16N 54°42' E 005°46'810.9
2016-Jul-22 14:31N 54°35' E 005°39'1110.9
2016-Jul-22 13:31N 54°26' E 005°29'1111.1
2016-Jul-22 12:33N 54°17' E 005°20'3867.7
2016-Jul-22 12:00N 54°54' E 005°06'47107.8 040 / 211019.510.8 1.017.0 19.0
2016-Jul-22 11:33N 54°07' E 005°10'1211.4
2016-Jul-22 10:32N 53°56' E 005°03'1211.6
2016-Jul-22 09:29N 53°45' E 004°55'1311.7
2016-Jul-22 08:21N 53°33' E 004°46'1011.9
2016-Jul-22 07:33N 53°24' E 004°41'3812.8
2016-Jul-22 04:33N 52°50' E 004°13'1312.6
2016-Jul-22 03:31N 52°39' E 004°02'1212.2
2016-Jul-22 02:33N 52°28' E 003°54'1211.6
2016-Jul-22 01:32N 52°16' E 003°52'1110.9
2016-Jul-22 00:33N 52°06' E 003°55'1010.2
2016-Jul-21 23:34N 51°59' E 004°07'9 8.6
2016-Jul-21 22:34N 51°53' E 004°18'1 0.8
2016-Jul-21 21:32N 51°54' E 004°16'0 0.0
2016-Jul-21 20:32N 51°54' E 004°16'0 0.0
2016-Jul-21 19:32N 51°54' E 004°16'0 0.0
2016-Jul-21 18:32N 51°54' E 004°16'0 0.0
2016-Jul-21 17:32N 51°54' E 004°16'0 0.0
2016-Jul-21 16:32N 51°54' E 004°16'0 0.0
2016-Jul-21 15:32N 51°54' E 004°16'0 0.0
2016-Jul-21 14:32N 51°54' E 004°16'0 0.0
2016-Jul-21 13:32N 51°54' E 004°16'0 0.0
2016-Jul-21 12:32N 51°54' E 004°16'0 0.0
2016-Jul-21 11:20N 51°54' E 004°16'0 0.0
2016-Jul-21 10:26N 51°54' E 004°16'0 0.0
2016-Jul-21 09:32N 51°54' E 004°16'0 0.0
2016-Jul-21 08:32N 51°54' E 004°16'0 0.0
2016-Jul-21 07:32N 51°54' E 004°16'0 0.0
2016-Jul-21 06:32N 51°54' E 004°16'0 0.0
2016-Jul-21 05:32N 51°54' E 004°16'0 0.0
2016-Jul-21 04:32N 51°54' E 004°16'0 0.0
2016-Jul-21 03:29N 51°54' E 004°16'0 0.0
2016-Jul-21 02:32N 51°54' E 004°16'0 0.0
2016-Jul-21 01:32N 51°54' E 004°16'0 0.0
2016-Jul-21 00:33N 51°54' E 004°16'1 0.7
2016-Jul-20 23:33N 51°54' E 004°16'1110.7
2016-Jul-20 22:33N 51°60' E 004°01'10 9.8
2016-Jul-20 21:33N 52°04' E 003°47'1212.0
2016-Jul-20 20:33N 52°16' E 003°47'1211.8
2016-Jul-20 19:32N 52°28' E 003°51'1111.0
2016-Jul-20 18:33N 52°39' E 003°54'1010.1
2016-Jul-20 17:33N 52°49' E 003°57'9 9.1
2016-Jul-20 16:33N 52°57' E 004°01'10 8.7
2016-Jul-20 15:28N 53°04' E 004°13'3911.1
2016-Jul-20 12:00N 53°36' E 004°48'1711.0 150 / 191012.910.8 1.020.0 16.0
2016-Jul-20 10:25N 53°53' E 004°50'1010.7
2016-Jul-20 09:32N 54°02' E 004°56'1010.2
2016-Jul-20 08:33N 54°12' E 004°55'1010.3
2016-Jul-20 07:33N 54°22' E 004°51'15 9.4
2016-Jul-20 06:00N 54°36' E 004°42'9210.9 110 / 191017.510.8 1.018.0 15.0
2016-Jul-19 21:32N 56°07' E 004°25'1111.4
2016-Jul-19 20:33N 56°19' E 004°25'3011.6
2016-Jul-19 18:00N 56°48' E 004°18'7212.0 180 / 121020.810.8 0.518.0 14.0
2016-Jul-19 12:00N 58°00' E 004°12'6010.1 270 / 141020.810.8 0.517.0 14.0
2016-Jul-19 06:00N 59°00' E 004°00'12610.5 200 / 171017.5 2.2 1.016.0 13.0
2016-Jul-18 18:00N 61°06' E 004°00'   350 / 101017.510.8 0.516.0 13.0

Dump ship's entire track history